Time,TemperatureF,DewpointF,PressureIn,WindDirection,WindDirectionDegrees,WindSpeedMPH,WindSpeedGustMPH,Humidity,HourlyPrecipIn,Conditions,Clouds,dailyrainin,SoftwareType,DateUTC
2013-05-06 00:01:00,43.0,20.9,30.09,SW,232,0.0,0.0,41,0.00,,---,0.00,VWS V14.01,2013-05-06 06:01:00,
2013-05-06 00:06:00,42.4,20.4,30.09,SW,232,0.0,0.0,41,0.00,,---,0.00,VWS V14.01,2013-05-06 06:06:00,
2013-05-06 00:11:00,42.1,20.1,30.09,SW,232,0.0,0.0,41,0.00,,---,0.00,VWS V14.01,2013-05-06 06:11:00,
2013-05-06 00:16:00,41.9,21.0,30.09,SW,233,0.0,0.0,43,0.00,,---,0.00,VWS V14.01,2013-05-06 06:16:00,
2013-05-06 00:21:00,41.5,20.2,30.09,WSW,244,0.0,0.0,42,0.00,,---,0.00,VWS V14.01,2013-05-06 06:21:00,
2013-05-06 00:26:00,41.0,19.7,30.09,WSW,244,0.0,0.0,42,0.00,,---,0.00,VWS V14.01,2013-05-06 06:26:00,
2013-05-06 00:31:00,40.8,20.1,30.09,WSW,244,0.0,0.0,43,0.00,,---,0.00,VWS V14.01,2013-05-06 06:31:00,
2013-05-06 00:36:00,40.8,20.1,30.09,SW,231,0.0,0.0,43,0.00,,---,0.00,VWS V14.01,2013-05-06 06:36:00,
2013-05-06 00:41:00,41.2,20.4,30.09,SSW,210,0.0,0.0,43,0.00,,---,0.00,VWS V14.01,2013-05-06 06:41:00,
2013-05-06 00:46:00,41.0,20.8,30.09,South,184,0.0,0.0,44,0.00,,---,0.00,VWS V14.01,2013-05-06 06:46:00,
2013-05-06 00:51:00,40.6,20.5,30.09,WSW,241,0.0,0.0,44,0.00,,---,0.00,VWS V14.01,2013-05-06 06:51:00,
2013-05-06 00:56:00,40.6,21.5,30.09,WSW,241,0.0,0.0,46,0.00,,---,0.00,VWS V14.01,2013-05-06 06:56:00,
2013-05-06 01:01:00,40.5,21.3,30.09,WSW,241,0.0,0.0,46,0.00,,---,0.00,VWS V14.01,2013-05-06 07:01:00,
2013-05-06 01:06:00,40.5,21.3,30.09,WSW,241,0.0,0.0,46,0.00,,---,0.00,VWS V14.01,2013-05-06 07:06:00,
2013-05-06 01:11:00,40.3,21.2,30.09,WSW,241,0.0,0.0,46,0.00,,---,0.00,VWS V14.01,2013-05-06 07:11:00,
2013-05-06 01:16:00,39.9,20.3,30.09,WSW,241,0.0,0.0,45,0.00,,---,0.00,VWS V14.01,2013-05-06 07:16:00,
2013-05-06 01:21:00,39.9,20.8,30.09,WSW,241,0.0,0.0,46,0.00,,---,0.00,VWS V14.01,2013-05-06 07:21:00,
2013-05-06 01:26:00,40.1,21.5,30.09,WSW,258,0.0,0.0,47,0.00,,---,0.00,VWS V14.01,2013-05-06 07:26:00,
2013-05-06 01:31:00,40.6,22.5,30.09,West,262,0.0,0.0,48,0.00,,---,0.00,VWS V14.01,2013-05-06 07:31:00,
2013-05-06 01:36:00,40.5,22.3,30.09,West,262,0.0,0.0,48,0.00,,---,0.00,VWS V14.01,2013-05-06 07:36:00,
2013-05-06 01:41:00,40.5,21.8,30.09,West,262,0.0,0.0,47,0.00,,---,0.00,VWS V14.01,2013-05-06 07:41:00,
2013-05-06 01:46:00,39.9,21.3,30.09,West,262,0.0,0.0,47,0.00,,---,0.00,VWS V14.01,2013-05-06 07:46:00,
2013-05-06 01:51:00,39.7,21.7,30.09,West,262,0.0,0.0,48,0.00,,---,0.00,VWS V14.01,2013-05-06 07:51:00,
2013-05-06 01:56:00,39.7,21.7,30.09,West,262,0.0,0.0,48,0.00,,---,0.00,VWS V14.01,2013-05-06 07:56:00,
2013-05-06 02:01:00,39.7,22.2,30.09,West,273,0.0,0.0,49,0.00,,---,0.00,VWS V14.01,2013-05-06 08:01:00,
2013-05-06 02:06:00,39.9,22.3,30.09,WSW,240,0.0,0.0,49,0.00,,---,0.00,VWS V14.01,2013-05-06 08:06:00,
2013-05-06 02:11:00,39.7,22.2,30.09,WSW,241,0.0,0.0,49,0.00,,---,0.00,VWS V14.01,2013-05-06 08:11:00,
2013-05-06 02:16:00,39.7,22.2,30.09,WSW,241,0.0,0.0,49,0.00,,---,0.00,VWS V14.01,2013-05-06 08:16:00,
2013-05-06 02:21:00,39.6,22.0,30.09,WSW,241,0.0,0.0,49,0.00,,---,0.00,VWS V14.01,2013-05-06 08:21:00,
2013-05-06 02:26:00,39.2,21.7,30.09,WSW,252,0.0,0.0,49,0.00,,---,0.00,VWS V14.01,2013-05-06 08:26:00,
2013-05-06 02:31:00,39.4,21.8,30.09,WSW,252,0.0,0.0,49,0.00,,---,0.00,VWS V14.01,2013-05-06 08:31:00,
2013-05-06 02:36:00,39.2,21.7,30.09,WSW,252,0.0,0.0,49,0.00,,---,0.00,VWS V14.01,2013-05-06 08:36:00,
2013-05-06 02:41:00,38.7,21.2,30.09,WSW,252,0.0,0.0,49,0.00,,---,0.00,VWS V14.01,2013-05-06 08:41:00,
2013-05-06 02:46:00,38.3,20.8,30.09,WSW,253,0.0,0.0,49,0.00,,---,0.00,VWS V14.01,2013-05-06 08:46:00,
2013-05-06 02:51:00,37.9,21.4,30.09,WSW,253,0.0,0.0,51,0.00,,---,0.00,VWS V14.01,2013-05-06 08:51:00,
2013-05-06 02:56:00,37.6,21.1,30.09,WSW,253,0.0,0.0,51,0.00,,---,0.00,VWS V14.01,2013-05-06 08:56:00,
2013-05-06 03:01:00,37.4,20.9,30.09,WSW,253,0.0,0.0,51,0.00,,---,0.00,VWS V14.01,2013-05-06 09:01:00,
2013-05-06 03:06:00,37.4,20.9,30.09,WSW,253,0.0,0.0,51,0.00,,---,0.00,VWS V14.01,2013-05-06 09:06:00,
2013-05-06 03:11:00,37.4,21.4,30.09,WSW,253,0.0,0.0,52,0.00,,---,0.00,VWS V14.01,2013-05-06 09:11:00,
2013-05-06 03:16:00,37.6,21.6,30.09,WSW,255,0.0,0.0,52,0.00,,---,0.00,VWS V14.01,2013-05-06 09:16:00,
2013-05-06 03:21:00,37.4,21.4,30.09,WSW,258,0.0,0.0,52,0.00,,---,0.00,VWS V14.01,2013-05-06 09:21:00,
2013-05-06 03:26:00,37.2,21.7,30.09,West,267,0.0,0.0,53,0.00,,---,0.00,VWS V14.01,2013-05-06 09:26:00,
2013-05-06 03:31:00,37.2,21.2,30.09,West,266,0.0,0.0,52,0.00,,---,0.00,VWS V14.01,2013-05-06 09:31:00,
2013-05-06 03:36:00,37.4,21.4,30.09,West,260,0.0,0.0,52,0.00,,---,0.00,VWS V14.01,2013-05-06 09:36:00,
2013-05-06 03:41:00,37.4,21.4,30.09,WSW,254,0.0,0.0,52,0.00,,---,0.00,VWS V14.01,2013-05-06 09:41:00,
2013-05-06 03:46:00,37.2,21.7,30.09,WSW,254,0.0,0.0,53,0.00,,---,0.00,VWS V14.01,2013-05-06 09:46:00,
2013-05-06 03:51:00,36.9,21.3,30.09,WSW,254,0.0,0.0,53,0.00,,---,0.00,VWS V14.01,2013-05-06 09:51:00,
2013-05-06 03:56:00,36.7,21.2,30.09,WSW,254,0.0,0.0,53,0.00,,---,0.00,VWS V14.01,2013-05-06 09:56:00,
2013-05-06 04:01:00,36.9,21.8,30.09,West,266,0.0,0.0,54,0.00,,---,0.00,VWS V14.01,2013-05-06 10:01:00,
2013-05-06 04:06:00,36.5,21.5,30.09,West,265,0.0,0.0,54,0.00,,---,0.00,VWS V14.01,2013-05-06 10:06:00,
2013-05-06 04:11:00,36.3,21.3,30.09,WSW,258,0.0,0.0,54,0.00,,---,0.00,VWS V14.01,2013-05-06 10:11:00,
2013-05-06 04:16:00,36.1,21.1,30.09,West,260,0.0,2.2,54,0.00,,---,0.00,VWS V14.01,2013-05-06 10:16:00,
2013-05-06 04:21:00,36.3,21.7,30.09,West,260,0.0,2.2,55,0.00,,---,0.00,VWS V14.01,2013-05-06 10:21:00,
2013-05-06 04:26:00,36.3,21.7,30.09,West,266,0.0,2.2,55,0.00,,---,0.00,VWS V14.01,2013-05-06 10:26:00,
2013-05-06 04:31:00,36.3,21.7,30.09,WSW,258,0.0,0.0,55,0.00,,---,0.00,VWS V14.01,2013-05-06 10:31:00,
2013-05-06 04:36:00,36.1,21.5,30.09,WSW,257,0.0,0.0,55,0.00,,---,0.00,VWS V14.01,2013-05-06 10:36:00,
2013-05-06 04:41:00,36.1,21.5,30.09,WSW,257,0.0,0.0,55,0.00,,---,0.00,VWS V14.01,2013-05-06 10:41:00,
2013-05-06 04:46:00,36.1,21.5,30.09,SW,236,0.0,0.0,55,0.00,,---,0.00,VWS V14.01,2013-05-06 10:46:00,
2013-05-06 04:51:00,36.1,21.5,30.09,WSW,256,0.0,0.0,55,0.00,,---,0.00,VWS V14.01,2013-05-06 10:51:00,
2013-05-06 04:56:00,36.0,21.4,30.09,WSW,256,0.0,0.0,55,0.00,,---,0.00,VWS V14.01,2013-05-06 10:56:00,
2013-05-06 05:01:00,35.6,21.0,30.09,WSW,256,0.0,0.0,55,0.00,,---,0.00,VWS V14.01,2013-05-06 11:01:00,
2013-05-06 05:06:00,35.2,21.1,30.09,WSW,256,0.0,0.0,56,0.00,,---,0.00,VWS V14.01,2013-05-06 11:06:00,
2013-05-06 05:11:00,34.9,20.8,30.09,WSW,256,0.0,0.0,56,0.00,,---,0.00,VWS V14.01,2013-05-06 11:11:00,
2013-05-06 05:16:00,34.9,21.2,30.09,WSW,245,0.0,0.0,57,0.00,,---,0.00,VWS V14.01,2013-05-06 11:16:00,
2013-05-06 05:21:00,35.1,21.4,30.09,WSW,248,0.0,0.0,57,0.00,,---,0.00,VWS V14.01,2013-05-06 11:21:00,
2013-05-06 05:26:00,35.1,21.4,30.09,West,259,0.0,0.0,57,0.00,,---,0.00,VWS V14.01,2013-05-06 11:26:00,
2013-05-06 05:31:00,35.1,21.4,30.12,West,260,0.0,0.0,57,0.00,,---,0.00,VWS V14.01,2013-05-06 11:31:00,
2013-05-06 05:36:00,34.9,21.2,30.12,West,260,0.0,0.0,57,0.00,,---,0.00,VWS V14.01,2013-05-06 11:36:00,
2013-05-06 05:41:00,35.1,21.8,30.12,West,260,0.0,0.0,58,0.00,,---,0.00,VWS V14.01,2013-05-06 11:41:00,
2013-05-06 05:46:00,34.9,21.2,30.12,West,259,0.0,0.0,57,0.00,,---,0.00,VWS V14.01,2013-05-06 11:46:00,
2013-05-06 05:51:00,34.9,21.6,30.12,West,259,0.0,0.0,58,0.00,,---,0.00,VWS V14.01,2013-05-06 11:51:00,
2013-05-06 05:56:00,34.5,21.3,30.12,West,259,0.0,0.0,58,0.00,,---,0.00,VWS V14.01,2013-05-06 11:56:00,
2013-05-06 06:01:00,34.3,21.1,30.12,West,259,0.0,0.0,58,0.00,,---,0.00,VWS V14.01,2013-05-06 12:01:00,
2013-05-06 06:06:00,34.2,20.9,30.12,West,259,0.0,0.0,58,0.00,,---,0.00,VWS V14.01,2013-05-06 12:06:00,
2013-05-06 06:11:00,34.0,20.8,30.12,West,259,0.0,0.0,58,0.00,,---,0.00,VWS V14.01,2013-05-06 12:11:00,
2013-05-06 06:16:00,33.8,21.0,30.09,West,259,0.0,0.0,59,0.00,,---,0.00,VWS V14.01,2013-05-06 12:16:00,
2013-05-06 06:21:00,33.6,21.2,30.09,West,259,0.0,0.0,60,0.00,,---,0.00,VWS V14.01,2013-05-06 12:21:00,
2013-05-06 06:26:00,33.8,21.4,30.09,West,259,0.0,0.0,60,0.00,,---,0.00,VWS V14.01,2013-05-06 12:26:00,
2013-05-06 06:31:00,34.0,21.6,30.12,West,259,0.0,0.0,60,0.00,,---,0.00,VWS V14.01,2013-05-06 12:31:00,
2013-05-06 06:36:00,34.0,21.6,30.12,WSW,256,0.0,0.0,60,0.00,,---,0.00,VWS V14.01,2013-05-06 12:36:00,
2013-05-06 06:41:00,34.0,22.0,30.12,WSW,254,0.0,0.0,61,0.00,,---,0.00,VWS V14.01,2013-05-06 12:41:00,
2013-05-06 06:46:00,34.3,22.3,30.12,WSW,254,0.0,0.0,61,0.00,,---,0.00,VWS V14.01,2013-05-06 12:46:00,
2013-05-06 06:51:00,34.5,22.9,30.12,WSW,254,0.0,0.0,62,0.00,,---,0.00,VWS V14.01,2013-05-06 12:51:00,
2013-05-06 06:56:00,34.9,23.2,30.12,WSW,254,0.0,0.0,62,0.00,,---,0.00,VWS V14.01,2013-05-06 12:56:00,
2013-05-06 07:01:00,35.6,23.9,30.12,WSW,254,0.0,0.0,62,0.00,,---,0.00,VWS V14.01,2013-05-06 13:01:00,
2013-05-06 07:06:00,36.5,25.1,30.12,WSW,254,0.0,0.0,63,0.00,,---,0.00,VWS V14.01,2013-05-06 13:06:00,
2013-05-06 07:11:00,38.1,27.4,30.12,WSW,254,0.0,0.0,65,0.00,,---,0.00,VWS V14.01,2013-05-06 13:11:00,
2013-05-06 07:16:00,40.5,29.3,30.12,WSW,254,0.0,0.0,64,0.00,,---,0.00,VWS V14.01,2013-05-06 13:16:00,
2013-05-06 07:21:00,41.7,30.1,30.12,WSW,254,0.0,0.0,63,0.00,,---,0.00,VWS V14.01,2013-05-06 13:21:00,
2013-05-06 07:26:00,43.3,31.2,30.12,WSW,254,0.0,0.0,62,0.00,,---,0.00,VWS V14.01,2013-05-06 13:26:00,
2013-05-06 07:31:00,45.0,32.3,30.12,SSE,153,0.0,0.0,61,0.00,,---,0.00,VWS V14.01,2013-05-06 13:31:00,
2013-05-06 07:36:00,45.7,32.2,30.12,SE,138,2.7,3.6,59,0.00,,---,0.00,VWS V14.01,2013-05-06 13:36:00,
2013-05-06 07:41:00,45.7,31.8,30.12,SE,138,2.2,3.6,58,0.00,,---,0.00,VWS V14.01,2013-05-06 13:41:00,
2013-05-06 07:46:00,46.0,31.7,30.12,SE,138,0.0,0.0,57,0.00,,---,0.00,VWS V14.01,2013-05-06 13:46:00,
2013-05-06 07:51:00,46.6,31.7,30.12,SE,138,0.0,0.0,56,0.00,,---,0.00,VWS V14.01,2013-05-06 13:51:00,
2013-05-06 07:56:00,46.6,31.3,30.12,SE,138,0.0,0.0,55,0.00,,---,0.00,VWS V14.01,2013-05-06 13:56:00,
2013-05-06 08:01:00,46.9,31.2,30.12,SE,138,2.7,3.6,54,0.00,,---,0.00,VWS V14.01,2013-05-06 14:01:00,
2013-05-06 08:06:00,47.7,30.9,30.12,SE,127,2.7,4.0,52,0.00,,---,0.00,VWS V14.01,2013-05-06 14:06:00,
2013-05-06 08:11:00,48.9,31.6,30.12,SE,145,3.1,4.0,51,0.00,,---,0.00,VWS V14.01,2013-05-06 14:11:00,
2013-05-06 08:16:00,49.8,31.4,30.12,SE,139,3.6,3.6,49,0.00,,---,0.00,VWS V14.01,2013-05-06 14:16:00,
2013-05-06 08:21:00,50.9,31.4,30.12,ESE,103,2.7,3.6,47,0.00,,---,0.00,VWS V14.01,2013-05-06 14:21:00,
2013-05-06 08:26:00,51.8,31.1,30.12,SE,136,2.7,4.0,45,0.00,,---,0.00,VWS V14.01,2013-05-06 14:26:00,
2013-05-06 08:31:00,52.5,30.7,30.12,ESE,122,0.0,2.7,43,0.00,,---,0.00,VWS V14.01,2013-05-06 14:31:00,
2013-05-06 08:36:00,53.4,30.3,30.12,SSE,157,0.0,4.0,41,0.00,,---,0.00,VWS V14.01,2013-05-06 14:36:00,
2013-05-06 08:41:00,54.7,29.6,30.12,ESE,118,3.1,4.9,38,0.00,,---,0.00,VWS V14.01,2013-05-06 14:41:00,
2013-05-06 08:46:00,55.8,29.9,30.12,ESE,117,2.7,3.1,37,0.00,,---,0.00,VWS V14.01,2013-05-06 14:46:00,
2013-05-06 08:51:00,56.7,30.0,30.12,East,84,3.1,3.1,36,0.00,,---,0.00,VWS V14.01,2013-05-06 14:51:00,
2013-05-06 08:56:00,57.4,30.0,30.12,SSE,158,2.2,3.6,35,0.00,,---,0.00,VWS V14.01,2013-05-06 14:56:00,
2013-05-06 09:01:00,57.9,30.5,30.12,SE,124,0.0,2.2,35,0.00,,---,0.00,VWS V14.01,2013-05-06 15:01:00,
2013-05-06 09:06:00,58.8,29.0,30.12,SSE,168,0.0,2.2,32,0.00,,---,0.00,VWS V14.01,2013-05-06 15:06:00,
2013-05-06 09:11:00,59.7,29.1,30.12,ESE,123,0.0,2.2,31,0.00,,---,0.00,VWS V14.01,2013-05-06 15:11:00,
2013-05-06 09:16:00,60.6,29.0,30.12,East,99,0.0,0.0,30,0.00,,---,0.00,VWS V14.01,2013-05-06 15:16:00,
2013-05-06 09:21:00,61.2,26.9,30.12,East,79,0.0,0.0,27,0.00,,---,0.00,VWS V14.01,2013-05-06 15:21:00,
2013-05-06 09:26:00,61.2,26.0,30.12,NE,37,0.0,0.0,26,0.00,,---,0.00,VWS V14.01,2013-05-06 15:26:00,
2013-05-06 09:31:00,61.2,25.1,30.09,NNE,20,0.0,0.0,25,0.00,,---,0.00,VWS V14.01,2013-05-06 15:31:00,
2013-05-06 09:36:00,60.6,24.6,30.09,North,6,0.0,0.0,25,0.00,,---,0.00,VWS V14.01,2013-05-06 15:36:00,
2013-05-06 09:41:00,60.8,24.8,30.09,North,8,0.0,0.0,25,0.00,,---,0.00,VWS V14.01,2013-05-06 15:41:00,
2013-05-06 09:46:00,61.2,25.1,30.09,NNW,334,0.0,0.0,25,0.00,,---,0.00,VWS V14.01,2013-05-06 15:46:00,
2013-05-06 09:51:00,61.3,25.2,30.09,NW,326,0.0,2.7,25,0.00,,---,0.00,VWS V14.01,2013-05-06 15:51:00,
2013-05-06 09:56:00,61.7,25.5,30.09,NW,326,0.0,2.7,25,0.00,,---,0.00,VWS V14.01,2013-05-06 15:56:00,
2013-05-06 10:01:00,61.3,25.2,30.09,NNE,13,3.1,3.1,25,0.00,,---,0.00,VWS V14.01,2013-05-06 16:01:00,
2013-05-06 10:06:00,62.8,25.5,30.09,North,3,3.1,4.0,24,0.00,,---,0.00,VWS V14.01,2013-05-06 16:06:00,
2013-05-06 10:11:00,62.8,25.5,30.09,North,6,4.5,4.5,24,0.00,,---,0.00,VWS V14.01,2013-05-06 16:11:00,
2013-05-06 10:16:00,62.8,25.5,30.09,North,0,0.0,3.6,24,0.00,,---,0.00,VWS V14.01,2013-05-06 16:16:00,
2013-05-06 10:21:00,62.8,25.5,30.09,North,357,0.0,5.8,24,0.00,,---,0.00,VWS V14.01,2013-05-06 16:21:00,
2013-05-06 10:26:00,63.5,26.1,30.09,North,353,2.7,5.8,24,0.00,,---,0.00,VWS V14.01,2013-05-06 16:26:00,
2013-05-06 10:31:00,63.3,25.9,30.09,NW,326,2.7,5.4,24,0.00,,---,0.00,VWS V14.01,2013-05-06 16:31:00,
2013-05-06 10:36:00,63.5,26.1,30.09,NNW,341,0.0,5.4,24,0.00,,---,0.00,VWS V14.01,2013-05-06 16:36:00,
2013-05-06 10:41:00,64.4,25.8,30.09,WNW,285,4.9,5.4,23,0.00,,---,0.00,VWS V14.01,2013-05-06 16:41:00,
2013-05-06 10:46:00,64.0,26.5,30.09,North,7,5.8,5.8,24,0.00,,---,0.00,VWS V14.01,2013-05-06 16:46:00,
2013-05-06 10:51:00,64.2,26.7,30.09,NNW,341,2.2,6.3,24,0.00,,---,0.00,VWS V14.01,2013-05-06 16:51:00,
2013-05-06 10:56:00,64.2,26.7,30.09,North,2,5.4,6.3,24,0.00,,---,0.00,VWS V14.01,2013-05-06 16:56:00,
2013-05-06 11:01:00,65.1,26.4,30.09,ESE,109,0.0,0.0,23,0.00,,---,0.00,VWS V14.01,2013-05-06 17:01:00,
2013-05-06 11:06:00,66.0,27.2,30.09,NNW,339,0.0,4.5,23,0.00,,---,0.00,VWS V14.01,2013-05-06 17:06:00,
2013-05-06 11:11:00,66.6,27.6,30.09,NNE,22,0.0,4.5,23,0.00,,---,0.00,VWS V14.01,2013-05-06 17:11:00,
2013-05-06 11:16:00,66.9,26.9,30.09,North,357,4.0,5.8,22,0.00,,---,0.00,VWS V14.01,2013-05-06 17:16:00,
2013-05-06 11:21:00,66.2,27.3,30.09,NNW,343,0.0,5.8,23,0.00,,---,0.00,VWS V14.01,2013-05-06 17:21:00,
2013-05-06 11:26:00,67.8,27.6,30.09,East,85,3.6,5.8,22,0.00,,---,0.00,VWS V14.01,2013-05-06 17:26:00,
2013-05-06 11:31:00,69.3,28.8,30.09,ESE,111,4.0,5.4,22,0.00,,---,0.00,VWS V14.01,2013-05-06 17:31:00,
2013-05-06 11:36:00,68.9,28.5,30.09,NNE,24,2.7,5.4,22,0.00,,---,0.00,VWS V14.01,2013-05-06 17:36:00,
2013-05-06 11:41:00,69.1,28.7,30.09,NE,34,2.2,5.4,22,0.00,,---,0.00,VWS V14.01,2013-05-06 17:41:00,
2013-05-06 11:46:00,68.9,28.5,30.06,North,353,2.7,3.6,22,0.00,,---,0.00,VWS V14.01,2013-05-06 17:46:00,
2013-05-06 11:51:00,69.3,28.8,30.06,North,0,0.0,3.6,22,0.00,,---,0.00,VWS V14.01,2013-05-06 17:51:00,
2013-05-06 11:56:00,69.4,29.0,30.06,NNE,22,3.6,5.8,22,0.00,,---,0.00,VWS V14.01,2013-05-06 17:56:00,
2013-05-06 12:01:00,69.8,29.3,30.06,NNE,17,3.1,4.9,22,0.00,,---,0.00,VWS V14.01,2013-05-06 18:01:00,
2013-05-06 12:06:00,69.4,26.7,30.06,NNE,32,3.1,6.3,20,0.00,,---,0.00,VWS V14.01,2013-05-06 18:06:00,
2013-05-06 12:11:00,68.7,26.1,30.06,North,357,2.7,6.3,20,0.00,,---,0.00,VWS V14.01,2013-05-06 18:11:00,
2013-05-06 12:16:00,69.4,29.0,30.06,WNW,284,0.0,2.2,22,0.00,,---,0.00,VWS V14.01,2013-05-06 18:16:00,
2013-05-06 12:21:00,69.8,25.7,30.06,NNW,332,4.0,6.3,19,0.00,,---,0.00,VWS V14.01,2013-05-06 18:21:00,
2013-05-06 12:26:00,69.6,26.8,30.06,North,357,2.7,8.3,20,0.00,,---,0.00,VWS V14.01,2013-05-06 18:26:00,
2013-05-06 12:31:00,69.6,26.8,30.06,North,5,5.8,5.8,20,0.00,,---,0.00,VWS V14.01,2013-05-06 18:31:00,
2013-05-06 12:36:00,69.8,25.7,30.06,NNE,16,3.6,5.8,19,0.00,,---,0.00,VWS V14.01,2013-05-06 18:36:00,
2013-05-06 12:41:00,69.8,25.7,30.06,NNW,335,0.0,7.6,19,0.00,,---,0.00,VWS V14.01,2013-05-06 18:41:00,
2013-05-06 12:46:00,70.9,26.6,30.06,NNE,21,3.1,5.8,19,0.00,,---,0.00,VWS V14.01,2013-05-06 18:46:00,
2013-05-06 12:51:00,71.6,27.2,30.06,North,8,4.5,5.8,19,0.00,,---,0.00,VWS V14.01,2013-05-06 18:51:00,
2013-05-06 12:56:00,70.9,26.6,30.06,NNW,342,4.0,8.1,19,0.00,,---,0.00,VWS V14.01,2013-05-06 18:56:00,
2013-05-06 13:01:00,71.4,27.0,30.03,NE,50,3.1,4.9,19,0.00,,---,0.00,VWS V14.01,2013-05-06 19:01:00,
2013-05-06 13:06:00,72.1,27.6,30.03,ENE,63,2.2,5.8,19,0.00,,---,0.00,VWS V14.01,2013-05-06 19:06:00,
2013-05-06 13:11:00,73.9,27.8,30.03,East,101,0.0,5.8,18,0.00,,---,0.00,VWS V14.01,2013-05-06 19:11:00,
2013-05-06 13:16:00,73.2,24.4,30.03,NE,48,2.7,4.9,16,0.00,,---,0.00,VWS V14.01,2013-05-06 19:16:00,
2013-05-06 13:22:00,73.8,27.6,30.03,North,9,2.7,4.9,18,0.00,,---,0.00,VWS V14.01,2013-05-06 19:22:00,
2013-05-06 13:27:00,73.8,24.8,30.03,North,7,2.2,5.4,16,0.00,,---,0.00,VWS V14.01,2013-05-06 19:27:00,
2013-05-06 13:32:00,74.1,25.1,30.03,NW,308,0.0,8.7,16,0.00,,---,0.00,VWS V14.01,2013-05-06 19:32:00,
2013-05-06 13:37:00,74.1,25.1,30.03,North,0,3.6,8.7,16,0.00,,---,0.00,VWS V14.01,2013-05-06 19:37:00,
2013-05-06 13:42:00,74.3,25.2,30.03,North,353,0.0,8.7,16,0.00,,---,0.00,VWS V14.01,2013-05-06 19:42:00,
2013-05-06 13:47:00,74.3,25.2,30.03,NNW,344,4.9,4.9,16,0.00,,---,0.00,VWS V14.01,2013-05-06 19:47:00,
2013-05-06 13:52:00,74.5,25.4,30.03,North,353,3.1,6.3,16,0.00,,---,0.00,VWS V14.01,2013-05-06 19:52:00,
2013-05-06 13:57:00,74.8,25.7,30.03,North,353,2.2,6.3,16,0.00,,---,0.00,VWS V14.01,2013-05-06 19:57:00,
2013-05-06 14:02:00,75.2,24.4,30.00,NE,56,2.2,4.5,15,0.00,,---,0.00,VWS V14.01,2013-05-06 20:02:00,
2013-05-06 14:07:00,75.9,25.0,30.00,NE,51,0.0,5.8,15,0.00,,---,0.00,VWS V14.01,2013-05-06 20:07:00,
2013-05-06 14:12:00,76.1,25.1,30.00,WNW,286,3.6,6.3,15,0.00,,---,0.00,VWS V14.01,2013-05-06 20:12:00,
2013-05-06 14:17:00,75.4,24.6,30.00,North,350,0.0,4.9,15,0.00,,---,0.00,VWS V14.01,2013-05-06 20:17:00,
2013-05-06 14:22:00,76.3,25.3,30.00,North,357,0.0,4.9,15,0.00,,---,0.00,VWS V14.01,2013-05-06 20:22:00,
2013-05-06 14:27:00,77.9,26.6,30.00,NE,49,0.0,4.9,15,0.00,,---,0.00,VWS V14.01,2013-05-06 20:27:00,
2013-05-06 14:32:00,77.5,26.3,30.00,ESE,120,3.6,5.4,15,0.00,,---,0.00,VWS V14.01,2013-05-06 20:32:00,
2013-05-06 14:37:00,78.4,27.0,30.00,East,81,2.2,5.4,15,0.00,,---,0.00,VWS V14.01,2013-05-06 20:37:00,
2013-05-06 14:42:00,78.1,26.7,30.00,NNW,348,2.7,6.3,15,0.00,,---,0.00,VWS V14.01,2013-05-06 20:42:00,
2013-05-06 14:47:00,77.4,26.1,30.00,North,0,3.1,5.4,15,0.00,,---,0.00,VWS V14.01,2013-05-06 20:47:00,
2013-05-06 14:52:00,76.8,25.7,30.00,NNE,18,2.2,6.3,15,0.00,,---,0.00,VWS V14.01,2013-05-06 20:52:00,
2013-05-06 14:57:00,77.7,26.4,30.00,WSW,242,4.0,6.3,15,0.00,,---,0.00,VWS V14.01,2013-05-06 20:57:00,
2013-05-06 15:02:00,79.5,27.9,30.00,South,177,4.9,5.4,15,0.00,,---,0.00,VWS V14.01,2013-05-06 21:02:00,
2013-05-06 15:07:00,80.2,28.4,30.00,WNW,294,0.0,5.8,15,0.00,,---,0.00,VWS V14.01,2013-05-06 21:07:00,
2013-05-06 15:12:00,81.3,27.6,30.00,SE,127,0.0,5.8,14,0.00,,---,0.00,VWS V14.01,2013-05-06 21:12:00,
2013-05-06 15:17:00,81.7,27.9,30.00,SSE,167,0.0,0.0,14,0.00,,---,0.00,VWS V14.01,2013-05-06 21:17:00,
2013-05-06 15:22:00,81.9,28.0,30.00,North,6,5.4,5.8,14,0.00,,---,0.00,VWS V14.01,2013-05-06 21:22:00,
2013-05-06 15:27:00,79.0,27.4,30.00,NNE,12,5.4,6.3,15,0.00,,---,0.00,VWS V14.01,2013-05-06 21:27:00,
2013-05-06 15:32:00,78.1,26.7,30.00,NNW,327,4.0,4.0,15,0.00,,---,0.00,VWS V14.01,2013-05-06 21:32:00,
2013-05-06 15:37:00,78.8,27.3,30.00,NNW,337,3.1,5.8,15,0.00,,---,0.00,VWS V14.01,2013-05-06 21:37:00,
2013-05-06 15:42:00,79.5,27.9,30.00,NW,319,3.1,5.8,15,0.00,,---,0.00,VWS V14.01,2013-05-06 21:42:00,
2013-05-06 15:47:00,78.1,26.7,29.97,North,350,0.0,5.8,15,0.00,,---,0.00,VWS V14.01,2013-05-06 21:47:00,
2013-05-06 15:52:00,78.6,27.1,29.97,SSE,160,3.6,5.8,15,0.00,,---,0.00,VWS V14.01,2013-05-06 21:52:00,
2013-05-06 15:57:00,79.9,28.1,29.97,WNW,292,2.7,5.8,15,0.00,,---,0.00,VWS V14.01,2013-05-06 21:57:00,
2013-05-06 16:02:00,81.5,27.8,29.97,WNW,298,0.0,3.1,14,0.00,,---,0.00,VWS V14.01,2013-05-06 22:02:00,
2013-05-06 16:07:00,82.6,28.6,29.97,SSE,153,0.0,3.1,14,0.00,,---,0.00,VWS V14.01,2013-05-06 22:07:00,
2013-05-06 16:12:00,81.9,28.0,29.97,North,1,3.1,6.7,14,0.00,,---,0.00,VWS V14.01,2013-05-06 22:12:00,
2013-05-06 16:17:00,80.1,28.3,29.97,NE,56,2.2,6.3,15,0.00,,---,0.00,VWS V14.01,2013-05-06 22:17:00,
2013-05-06 16:22:00,80.1,28.3,29.97,North,4,4.0,6.3,15,0.00,,---,0.00,VWS V14.01,2013-05-06 22:22:00,
2013-05-06 16:27:00,78.8,27.3,29.97,North,353,4.5,6.7,15,0.00,,---,0.00,VWS V14.01,2013-05-06 22:27:00,
2013-05-06 16:32:00,79.9,28.1,29.97,East,90,3.6,4.9,15,0.00,,---,0.00,VWS V14.01,2013-05-06 22:32:00,
2013-05-06 16:37:00,79.7,28.0,29.97,North,4,3.6,5.8,15,0.00,,---,0.00,VWS V14.01,2013-05-06 22:37:00,
2013-05-06 16:42:00,79.2,27.6,29.97,North,0,4.9,5.8,15,0.00,,---,0.00,VWS V14.01,2013-05-06 22:42:00,
2013-05-06 16:47:00,79.0,27.4,29.97,WNW,294,2.2,4.0,15,0.00,,---,0.00,VWS V14.01,2013-05-06 22:47:00,
2013-05-06 16:52:00,79.5,27.9,29.97,NW,323,0.0,4.0,15,0.00,,---,0.00,VWS V14.01,2013-05-06 22:52:00,
2013-05-06 16:57:00,80.2,28.4,29.97,North,10,3.6,4.0,15,0.00,,---,0.00,VWS V14.01,2013-05-06 22:57:00,
2013-05-06 17:02:00,79.5,27.9,29.97,WNW,291,2.2,4.0,15,0.00,,---,0.00,VWS V14.01,2013-05-06 23:02:00,
2013-05-06 17:07:00,80.1,28.3,29.97,WSW,250,2.7,5.4,15,0.00,,---,0.00,VWS V14.01,2013-05-06 23:07:00,
2013-05-06 17:12:00,80.2,28.4,29.94,North,4,2.7,5.4,15,0.00,,---,0.00,VWS V14.01,2013-05-06 23:12:00,
2013-05-06 17:17:00,79.5,27.9,29.94,NNW,348,2.7,3.6,15,0.00,,---,0.00,VWS V14.01,2013-05-06 23:17:00,
2013-05-06 17:22:00,78.4,27.0,29.94,NW,321,0.0,8.3,15,0.00,,---,0.00,VWS V14.01,2013-05-06 23:22:00,
2013-05-06 17:27:00,78.4,27.0,29.94,WNW,291,4.0,8.3,15,0.00,,---,0.00,VWS V14.01,2013-05-06 23:27:00,
2013-05-06 17:32:00,78.4,27.0,29.94,NNE,16,3.1,3.6,15,0.00,,---,0.00,VWS V14.01,2013-05-06 23:32:00,
2013-05-06 17:37:00,78.6,27.1,29.94,North,353,4.9,4.9,15,0.00,,---,0.00,VWS V14.01,2013-05-06 23:37:00,
2013-05-06 17:42:00,77.5,26.3,29.94,NNW,345,4.0,5.8,15,0.00,,---,0.00,VWS V14.01,2013-05-06 23:42:00,
2013-05-06 17:47:00,77.5,22.9,29.94,NNE,31,3.1,6.7,13,0.00,,---,0.00,VWS V14.01,2013-05-06 23:47:00,
2013-05-06 17:52:00,77.7,26.4,29.94,NNE,12,3.1,6.7,15,0.00,,---,0.00,VWS V14.01,2013-05-06 23:52:00,
2013-05-06 17:57:00,77.4,22.7,29.94,North,4,0.0,6.7,13,0.00,,---,0.00,VWS V14.01,2013-05-06 23:57:00,
2013-05-06 18:02:00,77.5,26.3,29.94,NE,35,2.7,3.1,15,0.00,,---,0.00,VWS V14.01,2013-05-07 00:02:00,
2013-05-06 18:07:00,78.3,26.9,29.94,North,0,0.0,3.1,15,0.00,,---,0.00,VWS V14.01,2013-05-07 00:07:00,
2013-05-06 18:12:00,77.9,26.6,29.94,North,0,5.4,5.8,15,0.00,,---,0.00,VWS V14.01,2013-05-07 00:12:00,
2013-05-06 18:17:00,77.0,22.4,29.94,NNW,330,3.6,5.8,13,0.00,,---,0.00,VWS V14.01,2013-05-07 00:17:00,
2013-05-06 18:22:00,76.8,22.3,29.94,North,2,4.0,5.8,13,0.00,,---,0.00,VWS V14.01,2013-05-07 00:22:00,
2013-05-06 18:27:00,76.6,22.1,29.94,North,5,2.7,5.8,13,0.00,,---,0.00,VWS V14.01,2013-05-07 00:27:00,
2013-05-06 18:32:00,76.5,22.0,29.94,NW,322,0.0,4.0,13,0.00,,---,0.00,VWS V14.01,2013-05-07 00:32:00,
2013-05-06 18:37:00,76.5,22.0,29.94,NE,40,2.7,4.9,13,0.00,,---,0.00,VWS V14.01,2013-05-07 00:37:00,
2013-05-06 18:42:00,75.9,21.6,29.94,North,10,4.0,6.3,13,0.00,,---,0.00,VWS V14.01,2013-05-07 00:42:00,
2013-05-06 18:47:00,75.4,21.2,29.94,North,357,4.0,5.4,13,0.00,,---,0.00,VWS V14.01,2013-05-07 00:47:00,
2013-05-06 18:52:00,75.0,20.9,29.94,North,349,0.0,6.3,13,0.00,,---,0.00,VWS V14.01,2013-05-07 00:52:00,
2013-05-06 18:57:00,74.8,20.7,29.94,North,353,0.0,6.3,13,0.00,,---,0.00,VWS V14.01,2013-05-07 00:57:00,
2013-05-06 19:02:00,74.7,20.6,29.94,North,6,0.0,2.2,13,0.00,,---,0.00,VWS V14.01,2013-05-07 01:02:00,
2013-05-06 19:07:00,74.3,20.3,29.94,North,0,0.0,2.2,13,0.00,,---,0.00,VWS V14.01,2013-05-07 01:07:00,
2013-05-06 19:12:00,73.8,19.9,29.94,North,3,3.6,3.6,13,0.00,,---,0.00,VWS V14.01,2013-05-07 01:12:00,
2013-05-06 19:17:00,73.4,19.6,29.94,NNE,15,0.0,3.6,13,0.00,,---,0.00,VWS V14.01,2013-05-07 01:17:00,
2013-05-06 19:22:00,73.0,21.1,29.94,NNE,12,2.2,4.0,14,0.00,,---,0.00,VWS V14.01,2013-05-07 01:22:00,
2013-05-06 19:27:00,72.7,20.8,29.94,North,7,3.1,4.9,14,0.00,,---,0.00,VWS V14.01,2013-05-07 01:27:00,
2013-05-06 19:32:00,72.3,20.5,29.94,North,8,0.0,2.7,14,0.00,,---,0.00,VWS V14.01,2013-05-07 01:32:00,
2013-05-06 19:37:00,71.8,20.1,29.94,North,9,0.0,3.1,14,0.00,,---,0.00,VWS V14.01,2013-05-07 01:37:00,
2013-05-06 19:42:00,71.2,19.6,29.94,North,9,0.0,3.1,14,0.00,,---,0.00,VWS V14.01,2013-05-07 01:42:00,
2013-05-06 19:47:00,70.5,19.1,29.94,North,9,0.0,0.0,14,0.00,,---,0.00,VWS V14.01,2013-05-07 01:47:00,
2013-05-06 19:52:00,70.0,18.6,29.94,North,9,0.0,0.0,14,0.00,,---,0.00,VWS V14.01,2013-05-07 01:52:00,
2013-05-06 19:57:00,69.4,19.8,29.94,NW,325,0.0,0.0,15,0.00,,---,0.00,VWS V14.01,2013-05-07 01:57:00,
2013-05-06 20:02:00,69.1,22.5,29.94,West,268,0.0,0.0,17,0.00,,---,0.00,VWS V14.01,2013-05-07 02:02:00,
2013-05-06 20:07:00,67.8,21.5,29.94,WSW,251,0.0,4.0,17,0.00,,---,0.00,VWS V14.01,2013-05-07 02:07:00,
2013-05-06 20:12:00,66.4,20.3,29.94,WNW,287,0.0,4.0,17,0.00,,---,0.00,VWS V14.01,2013-05-07 02:12:00,
2013-05-06 20:17:00,65.1,20.6,29.94,WNW,286,2.2,3.6,18,0.00,,---,0.00,VWS V14.01,2013-05-07 02:17:00,
2013-05-06 20:22:00,64.2,19.9,29.94,West,263,2.7,3.6,18,0.00,,---,0.00,VWS V14.01,2013-05-07 02:22:00,
2013-05-06 20:27:00,63.3,19.1,29.94,WNW,289,2.7,3.6,18,0.00,,---,0.00,VWS V14.01,2013-05-07 02:27:00,
2013-05-06 20:32:00,62.8,18.7,29.94,NNW,332,2.7,4.9,18,0.00,,---,0.00,VWS V14.01,2013-05-07 02:32:00,
2013-05-06 20:37:00,62.6,18.5,29.94,West,268,2.2,4.9,18,0.00,,---,0.00,VWS V14.01,2013-05-07 02:37:00,
2013-05-06 20:42:00,62.2,19.5,29.94,WNW,284,2.7,4.9,19,0.00,,---,0.00,VWS V14.01,2013-05-07 02:42:00,
2013-05-06 20:47:00,61.9,19.2,29.94,NW,311,0.0,3.1,19,0.00,,---,0.00,VWS V14.01,2013-05-07 02:47:00,
2013-05-06 20:52:00,61.7,19.0,29.94,West,279,2.7,4.0,19,0.00,,---,0.00,VWS V14.01,2013-05-07 02:52:00,
2013-05-06 20:57:00,61.5,18.9,29.94,WNW,283,2.7,4.0,19,0.00,,---,0.00,VWS V14.01,2013-05-07 02:57:00,
2013-05-06 21:02:00,61.3,18.8,29.94,WNW,294,2.7,2.7,19,0.00,,---,0.00,VWS V14.01,2013-05-07 03:02:00,
2013-05-06 21:07:00,61.3,18.8,29.94,WNW,298,3.1,4.0,19,0.00,,---,0.00,VWS V14.01,2013-05-07 03:07:00,
2013-05-06 21:12:00,61.2,18.6,29.94,WNW,288,2.2,4.0,19,0.00,,---,0.00,VWS V14.01,2013-05-07 03:12:00,
2013-05-06 21:17:00,60.8,18.3,29.94,WNW,290,0.0,0.0,19,0.00,,---,0.00,VWS V14.01,2013-05-07 03:17:00,
2013-05-06 21:22:00,60.1,17.7,29.94,WNW,291,0.0,0.0,19,0.00,,---,0.00,VWS V14.01,2013-05-07 03:22:00,
2013-05-06 21:27:00,59.7,17.4,29.94,West,269,0.0,3.1,19,0.00,,---,0.00,VWS V14.01,2013-05-07 03:27:00,
2013-05-06 21:32:00,59.2,17.0,29.94,West,278,3.1,3.1,19,0.00,,---,0.00,VWS V14.01,2013-05-07 03:32:00,
2013-05-06 21:37:00,58.5,16.4,29.94,SSW,201,0.0,3.6,19,0.00,,---,0.00,VWS V14.01,2013-05-07 03:37:00,
2013-05-06 21:42:00,58.5,16.4,29.97,WNW,294,0.0,4.0,19,0.00,,---,0.00,VWS V14.01,2013-05-07 03:42:00,
2013-05-06 21:47:00,58.1,16.1,29.97,WNW,294,0.0,0.0,19,0.00,,---,0.00,VWS V14.01,2013-05-07 03:47:00,
2013-05-06 21:52:00,56.3,15.8,29.97,SSE,158,0.0,3.6,20,0.00,,---,0.00,VWS V14.01,2013-05-07 03:52:00,
2013-05-06 21:57:00,55.0,17.9,29.97,SSE,158,0.0,3.6,23,0.00,,---,0.00,VWS V14.01,2013-05-07 03:57:00,
2013-05-06 22:01:00,54.3,17.3,29.97,SSE,158,0.0,0.0,23,0.00,,---,0.00,VWS V14.01,2013-05-07 04:01:00,
2013-05-06 22:06:00,53.2,16.4,29.97,ESE,112,0.0,0.0,23,0.00,,---,0.00,VWS V14.01,2013-05-07 04:06:00,
2013-05-06 22:11:00,51.8,18.0,29.97,ESE,112,0.0,0.0,26,0.00,,---,0.00,VWS V14.01,2013-05-07 04:11:00,
2013-05-06 22:16:00,51.1,18.3,29.97,South,185,0.0,0.0,27,0.00,,---,0.00,VWS V14.01,2013-05-07 04:16:00,
2013-05-06 22:21:00,50.9,18.1,29.97,South,185,0.0,0.0,27,0.00,,---,0.00,VWS V14.01,2013-05-07 04:21:00,
2013-05-06 22:26:00,50.4,19.3,29.97,South,188,0.0,0.0,29,0.00,,---,0.00,VWS V14.01,2013-05-07 04:26:00,
2013-05-06 22:31:00,50.2,20.0,29.97,SSW,207,0.0,0.0,30,0.00,,---,0.00,VWS V14.01,2013-05-07 04:31:00,
2013-05-06 22:36:00,50.2,20.0,29.97,SSW,207,0.0,0.0,30,0.00,,---,0.00,VWS V14.01,2013-05-07 04:36:00,
2013-05-06 22:41:00,50.0,19.8,29.97,SSW,207,0.0,0.0,30,0.00,,---,0.00,VWS V14.01,2013-05-07 04:41:00,
2013-05-06 22:46:00,49.6,19.5,29.97,SSW,207,0.0,0.0,30,0.00,,---,0.00,VWS V14.01,2013-05-07 04:46:00,
2013-05-06 22:51:00,49.5,19.3,29.97,SSW,207,0.0,0.0,30,0.00,,---,0.00,VWS V14.01,2013-05-07 04:51:00,
2013-05-06 22:56:00,49.1,19.0,29.97,SSW,207,0.0,0.0,30,0.00,,---,0.00,VWS V14.01,2013-05-07 04:56:00,
2013-05-06 23:01:00,48.7,19.5,29.97,SSW,208,0.0,0.0,31,0.00,,---,0.00,VWS V14.01,2013-05-07 05:01:00,
2013-05-06 23:06:00,48.7,19.5,29.97,SW,230,0.0,0.0,31,0.00,,---,0.00,VWS V14.01,2013-05-07 05:06:00,
2013-05-06 23:11:00,48.9,20.4,29.97,SSW,197,0.0,0.0,32,0.00,,---,0.00,VWS V14.01,2013-05-07 05:11:00,
2013-05-06 23:16:00,48.7,20.2,29.97,SSE,162,2.7,3.6,32,0.00,,---,0.00,VWS V14.01,2013-05-07 05:16:00,
2013-05-06 23:21:00,48.2,19.7,29.97,SSE,156,0.0,3.6,32,0.00,,---,0.00,VWS V14.01,2013-05-07 05:21:00,
2013-05-06 23:26:00,47.3,19.0,29.97,SSE,156,0.0,3.6,32,0.00,,---,0.00,VWS V14.01,2013-05-07 05:26:00,
2013-05-06 23:31:00,46.9,20.7,29.97,SSE,159,0.0,0.0,35,0.00,,---,0.00,VWS V14.01,2013-05-07 05:31:00,
2013-05-06 23:36:00,46.8,21.9,29.97,West,271,0.0,0.0,37,0.00,,---,0.00,VWS V14.01,2013-05-07 05:36:00,
2013-05-06 23:41:00,46.6,21.7,29.97,West,271,0.0,0.0,37,0.00,,---,0.00,VWS V14.01,2013-05-07 05:41:00,
2013-05-06 23:46:00,46.2,21.4,30.00,SW,227,0.0,0.0,37,0.00,,---,0.00,VWS V14.01,2013-05-07 05:46:00,
2013-05-06 23:51:00,46.0,21.9,30.00,WSW,247,0.0,0.0,38,0.00,,---,0.00,VWS V14.01,2013-05-07 05:51:00,
2013-05-06 23:56:00,46.2,22.0,30.00,SW,235,0.0,0.0,38,0.00,,---,0.00,VWS V14.01,2013-05-07 05:56:00,